sensor_id;sensor_type;location;lat;lon;timestamp;pressure;altitude;pressure_sealevel;temperature;humidity
66560;BME280;53413;49.878;8.142;2023-05-11T00:01:25;99746.13;;;9.28;100.00
66560;BME280;53413;49.878;8.142;2023-05-11T00:03:50;99747.03;;;9.27;100.00
66560;BME280;53413;49.878;8.142;2023-05-11T00:06:16;99752.34;;;9.26;100.00
66560;BME280;53413;49.878;8.142;2023-05-11T00:08:41;99746.31;;;9.23;100.00
66560;BME280;53413;49.878;8.142;2023-05-11T00:11:07;99748.13;;;9.21;100.00
66560;BME280;53413;49.878;8.142;2023-05-11T00:13:33;99743.03;;;9.18;100.00
66560;BME280;53413;49.878;8.142;2023-05-11T00:15:58;99744.03;;;9.14;100.00
66560;BME280;53413;49.878;8.142;2023-05-11T00:18:23;99740.72;;;9.09;100.00
66560;BME280;53413;49.878;8.142;2023-05-11T00:20:49;99744.38;;;9.05;100.00
66560;BME280;53413;49.878;8.142;2023-05-11T00:23:14;99745.38;;;9.01;100.00
66560;BME280;53413;49.878;8.142;2023-05-11T00:25:40;99744.66;;;8.97;100.00
66560;BME280;53413;49.878;8.142;2023-05-11T00:28:05;99747.44;;;8.92;100.00
66560;BME280;53413;49.878;8.142;2023-05-11T00:30:31;99748.50;;;8.87;100.00
66560;BME280;53413;49.878;8.142;2023-05-11T00:32:57;99749.56;;;8.81;100.00
66560;BME280;53413;49.878;8.142;2023-05-11T00:35:22;99751.56;;;8.74;100.00
66560;BME280;53413;49.878;8.142;2023-05-11T00:37:48;99753.53;;;8.68;100.00
66560;BME280;53413;49.878;8.142;2023-05-11T00:40:13;99746.69;;;8.63;100.00
66560;BME280;53413;49.878;8.142;2023-05-11T00:42:39;99748.50;;;8.61;100.00
66560;BME280;53413;49.878;8.142;2023-05-11T00:45:05;99744.16;;;8.60;100.00
66560;BME280;53413;49.878;8.142;2023-05-11T00:47:30;99745.03;;;8.61;100.00
66560;BME280;53413;49.878;8.142;2023-05-11T00:49:56;99734.53;;;8.62;100.00
66560;BME280;53413;49.878;8.142;2023-05-11T00:52:22;99740.56;;;8.65;100.00
66560;BME280;53413;49.878;8.142;2023-05-11T00:54:47;99737.88;;;8.66;100.00
66560;BME280;53413;49.878;8.142;2023-05-11T00:57:13;99730.03;;;8.66;100.00
66560;BME280;53413;49.878;8.142;2023-05-11T00:59:39;99741.44;;;8.65;100.00
66560;BME280;53413;49.878;8.142;2023-05-11T01:02:04;99730.22;;;8.61;100.00
66560;BME280;53413;49.878;8.142;2023-05-11T01:04:31;99735.50;;;8.60;100.00
66560;BME280;53413;49.878;8.142;2023-05-11T01:07:05;99733.94;;;8.54;100.00
66560;BME280;53413;49.878;8.142;2023-05-11T01:15:09;99735.97;;;8.44;100.00
66560;BME280;53413;49.878;8.142;2023-05-11T01:17:53;99732.53;;;8.44;100.00
66560;BME280;53413;49.878;8.142;2023-05-11T01:20:25;99729.06;;;8.43;100.00
66560;BME280;53413;49.878;8.142;2023-05-11T01:31:18;99738.97;;;8.34;100.00
66560;BME280;53413;49.878;8.142;2023-05-11T01:34:02;99734.69;;;8.31;100.00
66560;BME280;53413;49.878;8.142;2023-05-11T01:36:32;99733.94;;;8.27;100.00
66560;BME280;53413;49.878;8.142;2023-05-11T01:39:01;99738.47;;;8.22;100.00
66560;BME280;53413;49.878;8.142;2023-05-11T01:41:28;99736.94;;;8.16;100.00
66560;BME280;53413;49.878;8.142;2023-05-11T01:43:59;99745.75;;;8.12;100.00
66560;BME280;53413;49.878;8.142;2023-05-11T01:46:30;99745.00;;;8.09;100.00
66560;BME280;53413;49.878;8.142;2023-05-11T01:48:57;99743.38;;;8.05;100.00
66560;BME280;53413;49.878;8.142;2023-05-11T01:51:27;99742.53;;;8.04;100.00
66560;BME280;53413;49.878;8.142;2023-05-11T01:53:53;99742.53;;;8.04;100.00
66560;BME280;53413;49.878;8.142;2023-05-11T01:56:21;99743.47;;;8.01;100.00
66560;BME280;53413;49.878;8.142;2023-05-11T01:58:48;99747.75;;;8.04;100.00
66560;BME280;53413;49.878;8.142;2023-05-11T02:01:15;99747.78;;;8.02;100.00
66560;BME280;53413;49.878;8.142;2023-05-11T02:03:41;99746.88;;;8.04;100.00
66560;BME280;53413;49.878;8.142;2023-05-11T02:06:10;99746.88;;;8.04;100.00
66560;BME280;53413;49.878;8.142;2023-05-11T02:08:38;99746.88;;;8.04;100.00
66560;BME280;53413;49.878;8.142;2023-05-11T02:11:05;99748.59;;;8.05;100.00
66560;BME280;53413;49.878;8.142;2023-05-11T02:13:32;99750.38;;;8.04;100.00
66560;BME280;53413;49.878;8.142;2023-05-11T02:15:59;99747.78;;;8.02;100.00
66560;BME280;53413;49.878;8.142;2023-05-11T02:18:26;99750.41;;;8.02;100.00
66560;BME280;53413;49.878;8.142;2023-05-11T02:20:52;99751.28;;;8.01;100.00
66560;BME280;53413;49.878;8.142;2023-05-11T02:23:21;99755.69;;;8.01;100.00
66560;BME280;53413;49.878;8.142;2023-05-11T02:25:51;99762.63;;;8.00;100.00
66560;BME280;53413;49.878;8.142;2023-05-11T02:28:17;99756.66;;;7.97;100.00
66560;BME280;53413;49.878;8.142;2023-05-11T02:30:49;99756.66;;;7.97;100.00
66560;BME280;53413;49.878;8.142;2023-05-11T02:33:24;99752.41;;;7.94;100.00
66560;BME280;53413;49.878;8.142;2023-05-11T02:35:54;99752.47;;;7.93;100.00
66560;BME280;53413;49.878;8.142;2023-05-11T02:38:24;99757.72;;;7.91;100.00
66560;BME280;53413;49.878;8.142;2023-05-11T02:40:53;99752.59;;;7.88;100.00
66560;BME280;53413;49.878;8.142;2023-05-11T02:43:23;99756.16;;;7.85;100.00
66560;BME280;53413;49.878;8.142;2023-05-11T02:45:53;99753.63;;;7.82;100.00
66560;BME280;53413;49.878;8.142;2023-05-11T02:48:25;99760.63;;;7.82;100.00
66560;BME280;53413;49.878;8.142;2023-05-11T02:50:53;99754.56;;;7.81;100.00
66560;BME280;53413;49.878;8.142;2023-05-11T02:53:20;99755.41;;;7.82;100.00
66560;BME280;53413;49.878;8.142;2023-05-11T02:55:47;99751.88;;;7.83;100.00
66560;BME280;53413;49.878;8.142;2023-05-11T02:58:15;99749.28;;;7.83;100.00
66560;BME280;53413;49.878;8.142;2023-05-11T03:00:40;99746.66;;;7.83;100.00
66560;BME280;53413;49.878;8.142;2023-05-11T03:03:06;99749.28;;;7.83;100.00
66560;BME280;53413;49.878;8.142;2023-05-11T03:05:31;99745.81;;;7.82;100.00
66560;BME280;53413;49.878;8.142;2023-05-11T03:07:57;99751.06;;;7.81;100.00
66560;BME280;53413;49.878;8.142;2023-05-11T03:10:27;99751.97;;;7.80;100.00
66560;BME280;53413;49.878;8.142;2023-05-11T03:12:54;99747.72;;;7.77;100.00
66560;BME280;53413;49.878;8.142;2023-05-11T03:15:20;99751.22;;;7.76;100.00
66560;BME280;53413;49.878;8.142;2023-05-11T03:17:46;99746.06;;;7.75;100.00
66560;BME280;53413;49.878;8.142;2023-05-11T03:20:14;99747.78;;;7.76;100.00
66560;BME280;53413;49.878;8.142;2023-05-11T03:22:40;99749.56;;;7.74;100.00
66560;BME280;53413;49.878;8.142;2023-05-11T03:25:06;99758.31;;;7.71;100.00
66560;BME280;53413;49.878;8.142;2023-05-11T03:27:34;99754.88;;;7.70;100.00
66560;BME280;53413;49.878;8.142;2023-05-11T03:30:02;99751.50;;;7.67;100.00
66560;BME280;53413;49.878;8.142;2023-05-11T03:32:29;99753.25;;;7.66;100.00
66560;BME280;53413;49.878;8.142;2023-05-11T03:34:54;99749.00;;;7.64;100.00
66560;BME280;53413;49.878;8.142;2023-05-11T03:37:20;99758.59;;;7.63;100.00
66560;BME280;53413;49.878;8.142;2023-05-11T03:39:50;99755.19;;;7.60;100.00
66560;BME280;53413;49.878;8.142;2023-05-11T03:42:16;99749.22;;;7.56;100.00
66560;BME280;53413;49.878;8.142;2023-05-11T03:44:45;99759.66;;;7.56;100.00
66560;BME280;53413;49.878;8.142;2023-05-11T03:47:12;99760.53;;;7.55;100.00
66560;BME280;53413;49.878;8.142;2023-05-11T03:49:39;99759.63;;;7.58;100.00
66560;BME280;53413;49.878;8.142;2023-05-11T03:52:05;99758.66;;;7.60;100.00
66560;BME280;53413;49.878;8.142;2023-05-11T03:54:31;99768.91;;;7.66;100.00
66560;BME280;53413;49.878;8.142;2023-05-11T03:56:57;99758.31;;;7.71;100.00
66560;BME280;53413;49.878;8.142;2023-05-11T03:59:22;99758.22;;;7.76;100.00
66560;BME280;53413;49.878;8.142;2023-05-11T04:01:48;99759.81;;;7.80;100.00
66560;BME280;53413;49.878;8.142;2023-05-11T04:04:17;99755.34;;;7.83;100.00
66560;BME280;53413;49.878;8.142;2023-05-11T04:06:43;99761.34;;;7.87;100.00
66560;BME280;53413;49.878;8.142;2023-05-11T04:09:08;99759.41;;;7.94;100.00
66560;BME280;53413;49.878;8.142;2023-05-11T04:11:37;99755.72;;;7.99;100.00
66560;BME280;53413;49.878;8.142;2023-05-11T04:14:02;99757.31;;;8.04;100.00
66560;BME280;53413;49.878;8.142;2023-05-11T04:16:28;99755.44;;;8.09;100.00
66560;BME280;53413;49.878;8.142;2023-05-11T04:18:53;99752.59;;;8.15;100.00
66560;BME280;53413;49.878;8.142;2023-05-11T04:21:18;99750.66;;;8.22;100.00
66560;BME280;53413;49.878;8.142;2023-05-11T04:23:44;99749.56;;;8.29;100.00
66560;BME280;53413;49.878;8.142;2023-05-11T04:26:09;99751.88;;;8.38;100.00
66560;BME280;53413;49.878;8.142;2023-05-11T04:28:34;99753.28;;;8.49;100.00
66560;BME280;53413;49.878;8.142;2023-05-11T04:31:00;99754.69;;;8.59;100.00
66560;BME280;53413;49.878;8.142;2023-05-11T04:33:25;99753.53;;;8.68;100.00
66560;BME280;53413;49.878;8.142;2023-05-11T04:35:52;99757.44;;;8.80;100.00
66560;BME280;53413;49.878;8.142;2023-05-11T04:38:18;99758.69;;;8.95;100.00
66560;BME280;53413;49.878;8.142;2023-05-11T04:40:44;99753.88;;;9.07;100.00
66560;BME280;53413;49.878;8.142;2023-05-11T04:43:09;99754.13;;;9.25;100.00
66560;BME280;53413;49.878;8.142;2023-05-11T04:45:34;99760.56;;;9.38;100.00
66560;BME280;53413;49.878;8.142;2023-05-11T04:48:00;99764.25;;;9.57;100.00
66560;BME280;53413;49.878;8.142;2023-05-11T04:50:26;99766.38;;;9.70;100.00
66560;BME280;53413;49.878;8.142;2023-05-11T04:52:52;99760.56;;;9.84;100.00
66560;BME280;53413;49.878;8.142;2023-05-11T04:55:17;99761.88;;;9.96;100.00
66560;BME280;53413;49.878;8.142;2023-05-11T04:57:54;99771.84;;;10.09;100.00
66560;BME280;53413;49.878;8.142;2023-05-11T05:00:20;99769.78;;;10.17;100.00
66560;BME280;53413;49.878;8.142;2023-05-11T05:02:45;99760.75;;;10.24;100.00
66560;BME280;53413;49.878;8.142;2023-05-11T05:05:16;99767.38;;;10.33;100.00
66560;BME280;53413;49.878;8.142;2023-05-11T05:07:42;99774.03;;;10.42;100.00
66560;BME280;53413;49.878;8.142;2023-05-11T05:10:08;99774.56;;;10.50;100.00
66560;BME280;53413;49.878;8.142;2023-05-11T05:12:37;99776.78;;;10.59;100.00
66560;BME280;53413;49.878;8.142;2023-05-11T05:15:03;99776.53;;;10.66;100.00
66560;BME280;53413;49.878;8.142;2023-05-11T05:17:29;99778.06;;;10.71;100.00
66560;BME280;53413;49.878;8.142;2023-05-11T05:19:55;99785.72;;;10.76;100.00
66560;BME280;53413;49.878;8.142;2023-05-11T05:22:22;99790.50;;;10.87;100.00
66560;BME280;53413;49.878;8.142;2023-05-11T05:24:47;99775.78;;;11.03;100.00
66560;BME280;53413;49.878;8.142;2023-05-11T05:27:13;99781.38;;;11.16;100.00
66560;BME280;53413;49.878;8.142;2023-05-11T05:29:38;99779.25;;;11.24;100.00
66560;BME280;53413;49.878;8.142;2023-05-11T05:32:03;99778.13;;;11.49;100.00
66560;BME280;53413;49.878;8.142;2023-05-11T05:34:29;99774.72;;;11.66;100.00
66560;BME280;53413;49.878;8.142;2023-05-11T05:36:54;99775.72;;;11.83;100.00
66560;BME280;53413;49.878;8.142;2023-05-11T05:39:19;99779.19;;;12.03;100.00
66560;BME280;53413;49.878;8.142;2023-05-11T05:41:45;99777.22;;;12.25;100.00
66560;BME280;53413;49.878;8.142;2023-05-11T05:44:10;99775.38;;;12.45;100.00
66560;BME280;53413;49.878;8.142;2023-05-11T05:46:36;99779.72;;;12.63;100.00
66560;BME280;53413;49.878;8.142;2023-05-11T05:49:01;99790.16;;;12.83;100.00
66560;BME280;53413;49.878;8.142;2023-05-11T05:51:26;99785.97;;;12.96;100.00
66560;BME280;53413;49.878;8.142;2023-05-11T05:53:52;99784.16;;;13.14;100.00
66560;BME280;53413;49.878;8.142;2023-05-11T05:56:17;99789.75;;;13.42;100.00
66560;BME280;53413;49.878;8.142;2023-05-11T05:58:42;99786.84;;;13.64;100.00
66560;BME280;53413;49.878;8.142;2023-05-11T06:01:08;99780.53;;;13.82;100.00
66560;BME280;53413;49.878;8.142;2023-05-11T06:03:33;99785.09;;;14.11;100.00
66560;BME280;53413;49.878;8.142;2023-05-11T06:05:59;99784.63;;;14.35;100.00
66560;BME280;53413;49.878;8.142;2023-05-11T06:08:26;99784.78;;;14.47;100.00
66560;BME280;53413;49.878;8.142;2023-05-11T06:10:52;99791.53;;;14.68;100.00
66560;BME280;53413;49.878;8.142;2023-05-11T06:13:17;99790.09;;;14.92;100.00
66560;BME280;53413;49.878;8.142;2023-05-11T06:15:43;99794.84;;;15.02;100.00
66560;BME280;53413;49.878;8.142;2023-05-11T06:18:08;99797.94;;;15.23;100.00
66560;BME280;53413;49.878;8.142;2023-05-11T06:20:33;99791.31;;;15.59;100.00
66560;BME280;53413;49.878;8.142;2023-05-11T06:22:59;99789.31;;;15.92;100.00
66560;BME280;53413;49.878;8.142;2023-05-11T06:25:24;99780.13;;;16.25;100.00
66560;BME280;53413;49.878;8.142;2023-05-11T06:27:49;99783.59;;;16.40;100.00
66560;BME280;53413;49.878;8.142;2023-05-11T06:30:15;99788.00;;;16.80;100.00
66560;BME280;53413;49.878;8.142;2023-05-11T06:32:40;99785.59;;;17.15;100.00
66560;BME280;53413;49.878;8.142;2023-05-11T06:35:06;99782.72;;;17.44;100.00
66560;BME280;53413;49.878;8.142;2023-05-11T06:37:34;99773.84;;;17.69;99.01
66560;BME280;53413;49.878;8.142;2023-05-11T06:40:00;99774.97;;;17.78;98.22
66560;BME280;53413;49.878;8.142;2023-05-11T06:42:25;99784.84;;;18.13;97.00
66560;BME280;53413;49.878;8.142;2023-05-11T06:44:51;99783.38;;;18.34;94.46
66560;BME280;53413;49.878;8.142;2023-05-11T06:47:16;99777.94;;;18.59;92.34
66560;BME280;53413;49.878;8.142;2023-05-11T06:49:42;99777.97;;;18.82;89.27
66560;BME280;53413;49.878;8.142;2023-05-11T06:52:07;99779.59;;;18.96;89.73
66560;BME280;53413;49.878;8.142;2023-05-11T06:54:33;99782.31;;;19.30;86.80
66560;BME280;53413;49.878;8.142;2023-05-11T06:56:59;99776.22;;;19.74;84.81
66560;BME280;53413;49.878;8.142;2023-05-11T06:59:24;99781.13;;;20.01;80.26
66560;BME280;53413;49.878;8.142;2023-05-11T07:01:50;99784.97;;;20.41;79.50
66560;BME280;53413;49.878;8.142;2023-05-11T07:04:15;99788.19;;;20.77;76.91
66560;BME280;53413;49.878;8.142;2023-05-11T07:06:41;99786.81;;;21.04;74.13
66560;BME280;53413;49.878;8.142;2023-05-11T07:09:06;99787.78;;;21.24;73.55
66560;BME280;53413;49.878;8.142;2023-05-11T07:11:32;99790.19;;;21.37;72.14
66560;BME280;53413;49.878;8.142;2023-05-11T07:13:57;99787.53;;;21.37;71.15
66560;BME280;53413;49.878;8.142;2023-05-11T07:16:22;99783.53;;;21.52;70.19
66560;BME280;53413;49.878;8.142;2023-05-11T07:18:48;99784.72;;;21.70;68.98
66560;BME280;53413;49.878;8.142;2023-05-11T07:21:14;99794.19;;;21.52;68.50
66560;BME280;53413;49.878;8.142;2023-05-11T07:23:39;99790.81;;;21.50;68.93
66560;BME280;53413;49.878;8.142;2023-05-11T07:26:06;99794.56;;;21.07;67.97
66560;BME280;53413;49.878;8.142;2023-05-11T07:28:35;99789.53;;;20.71;70.49
66560;BME280;53413;49.878;8.142;2023-05-11T07:31:01;99797.00;;;20.56;70.75
66560;BME280;53413;49.878;8.142;2023-05-11T07:33:26;99797.66;;;20.70;70.87
66560;BME280;53413;49.878;8.142;2023-05-11T07:35:51;99795.88;;;20.91;69.42
66560;BME280;53413;49.878;8.142;2023-05-11T07:38:17;99790.22;;;21.06;69.45
66560;BME280;53413;49.878;8.142;2023-05-11T07:40:42;99790.38;;;21.14;68.94
66560;BME280;53413;49.878;8.142;2023-05-11T07:43:08;99795.50;;;21.27;68.20
66560;BME280;53413;49.878;8.142;2023-05-11T07:45:33;99791.88;;;21.28;68.14
66560;BME280;53413;49.878;8.142;2023-05-11T07:47:58;99799.47;;;21.33;67.76
66560;BME280;53413;49.878;8.142;2023-05-11T07:50:24;99789.69;;;21.43;67.10
66560;BME280;53413;49.878;8.142;2023-05-11T07:52:49;99791.47;;;21.64;66.59
66560;BME280;53413;49.878;8.142;2023-05-11T07:55:14;99791.09;;;21.78;65.51
66560;BME280;53413;49.878;8.142;2023-05-11T07:57:40;99793.34;;;22.03;65.48
66560;BME280;53413;49.878;8.142;2023-05-11T08:00:06;99792.13;;;22.36;64.71
66560;BME280;53413;49.878;8.142;2023-05-11T08:02:32;99791.59;;;22.62;63.47
66560;BME280;53413;49.878;8.142;2023-05-11T08:04:57;99789.41;;;22.95;63.09
66560;BME280;53413;49.878;8.142;2023-05-11T08:07:22;99791.22;;;23.04;62.41
66560;BME280;53413;49.878;8.142;2023-05-11T08:09:48;99792.88;;;23.25;61.38
66560;BME280;53413;49.878;8.142;2023-05-11T08:12:14;99794.19;;;23.49;60.30
66560;BME280;53413;49.878;8.142;2023-05-11T08:14:39;99795.50;;;23.91;59.72
66560;BME280;53413;49.878;8.142;2023-05-11T08:17:07;99789.56;;;23.97;57.94
66560;BME280;53413;49.878;8.142;2023-05-11T08:19:33;99791.66;;;24.03;58.19
66560;BME280;53413;49.878;8.142;2023-05-11T08:22:00;99790.66;;;24.40;57.48
66560;BME280;53413;49.878;8.142;2023-05-11T08:24:28;99794.25;;;24.49;56.61
66560;BME280;53413;49.878;8.142;2023-05-11T08:26:53;99792.25;;;24.15;55.63
66560;BME280;53413;49.878;8.142;2023-05-11T08:29:19;99791.28;;;24.16;56.66
66560;BME280;53413;49.878;8.142;2023-05-11T08:31:44;99794.81;;;24.17;56.60
66560;BME280;53413;49.878;8.142;2023-05-11T08:34:09;99796.09;;;24.49;56.10
66560;BME280;53413;49.878;8.142;2023-05-11T08:36:35;99796.84;;;24.41;55.28
66560;BME280;53413;49.878;8.142;2023-05-11T08:39:01;99797.25;;;24.10;55.51
66560;BME280;53413;49.878;8.142;2023-05-11T08:41:26;99798.41;;;23.79;56.97
66560;BME280;53413;49.878;8.142;2023-05-11T08:43:54;99797.38;;;23.62;56.69
66560;BME280;53413;49.878;8.142;2023-05-11T08:46:23;99801.03;;;23.61;56.66
66560;BME280;53413;49.878;8.142;2023-05-11T08:48:52;99802.75;;;23.15;57.18
66560;BME280;53413;49.878;8.142;2023-05-11T08:51:17;99801.63;;;23.08;57.80
66560;BME280;53413;49.878;8.142;2023-05-11T08:53:44;99804.19;;;22.99;58.12
66560;BME280;53413;49.878;8.142;2023-05-11T08:56:10;99806.00;;;22.99;57.38
66560;BME280;53413;49.878;8.142;2023-05-11T08:58:37;99803.84;;;23.12;57.59
66560;BME280;53413;49.878;8.142;2023-05-11T09:01:03;99804.00;;;23.11;57.51
66560;BME280;53413;49.878;8.142;2023-05-11T09:03:30;99798.84;;;22.99;57.83
66560;BME280;53413;49.878;8.142;2023-05-11T09:05:58;99807.41;;;22.93;58.47
66560;BME280;53413;49.878;8.142;2023-05-11T09:08:26;99795.78;;;22.74;58.97
66560;BME280;53413;49.878;8.142;2023-05-11T09:10:54;99806.63;;;22.63;58.47
66560;BME280;53413;49.878;8.142;2023-05-11T09:13:20;99801.97;;;22.45;58.84
66560;BME280;53413;49.878;8.142;2023-05-11T09:15:45;99799.75;;;22.51;59.08
66560;BME280;53413;49.878;8.142;2023-05-11T09:18:11;99796.88;;;22.82;58.18
66560;BME280;53413;49.878;8.142;2023-05-11T09:20:42;99797.72;;;22.92;57.72
66560;BME280;53413;49.878;8.142;2023-05-11T09:23:07;99796.44;;;23.06;57.18
66560;BME280;53413;49.878;8.142;2023-05-11T09:25:32;99798.63;;;23.30;56.36
66560;BME280;53413;49.878;8.142;2023-05-11T09:27:59;99791.13;;;23.72;56.11
66560;BME280;53413;49.878;8.142;2023-05-11T09:30:25;99788.81;;;24.41;54.74
66560;BME280;53413;49.878;8.142;2023-05-11T09:32:58;99792.75;;;24.91;53.26
66560;BME280;53413;49.878;8.142;2023-05-11T09:35:32;99791.47;;;25.30;52.49
66560;BME280;53413;49.878;8.142;2023-05-11T09:40:27;99798.41;;;25.14;51.23
66560;BME280;53413;49.878;8.142;2023-05-11T09:42:53;99799.94;;;24.46;52.16
66560;BME280;53413;49.878;8.142;2023-05-11T09:48:03;99794.53;;;23.92;54.77
66560;BME280;53413;49.878;8.142;2023-05-11T09:50:35;99801.00;;;23.89;54.46
66560;BME280;53413;49.878;8.142;2023-05-11T09:53:01;99800.69;;;23.92;54.94
66560;BME280;53413;49.878;8.142;2023-05-11T09:55:26;99790.28;;;23.89;54.77
66560;BME280;53413;49.878;8.142;2023-05-11T09:57:56;99794.28;;;23.57;55.55
66560;BME280;53413;49.878;8.142;2023-05-11T10:00:22;99795.66;;;23.33;55.31
66560;BME280;53413;49.878;8.142;2023-05-11T10:02:59;99795.38;;;22.69;55.49
66560;BME280;53413;49.878;8.142;2023-05-11T10:05:28;99789.63;;;22.44;56.35
66560;BME280;53413;49.878;8.142;2023-05-11T10:08:00;99793.53;;;22.30;57.35
66560;BME280;53413;49.878;8.142;2023-05-11T10:10:28;99792.13;;;22.26;57.28
66560;BME280;53413;49.878;8.142;2023-05-11T10:12:55;99792.25;;;22.15;57.70
66560;BME280;53413;49.878;8.142;2023-05-11T10:15:22;99786.91;;;22.15;58.00
66560;BME280;53413;49.878;8.142;2023-05-11T10:17:57;99784.13;;;22.36;57.56
66560;BME280;53413;49.878;8.142;2023-05-11T10:20:24;99789.63;;;22.54;57.16
66560;BME280;53413;49.878;8.142;2023-05-11T10:22:51;99781.44;;;22.75;55.39
66560;BME280;53413;49.878;8.142;2023-05-11T10:25:19;99788.44;;;22.86;54.84
66560;BME280;53413;49.878;8.142;2023-05-11T10:27:46;99787.28;;;22.99;54.28
66560;BME280;53413;49.878;8.142;2023-05-11T10:30:11;99780.84;;;23.01;54.54
66560;BME280;53413;49.878;8.142;2023-05-11T10:32:37;99779.19;;;23.28;53.83
66560;BME280;53413;49.878;8.142;2023-05-11T10:35:04;99784.00;;;23.62;53.29
66560;BME280;53413;49.878;8.142;2023-05-11T10:37:31;99771.97;;;23.94;52.94
66560;BME280;53413;49.878;8.142;2023-05-11T10:39:58;99768.78;;;24.09;52.39
66560;BME280;53413;49.878;8.142;2023-05-11T11:01:50;99767.31;;;24.69;52.20
66560;BME280;53413;49.878;8.142;2023-05-11T11:04:16;99770.91;;;24.59;52.46
66560;BME280;53413;49.878;8.142;2023-05-11T11:06:43;99772.75;;;24.41;52.60
66560;BME280;53413;49.878;8.142;2023-05-11T11:09:15;99772.56;;;23.88;52.39
66560;BME280;53413;49.878;8.142;2023-05-11T11:11:42;99773.66;;;23.40;54.11
66560;BME280;53413;49.878;8.142;2023-05-11T11:14:11;99775.69;;;23.18;53.93
66560;BME280;53413;49.878;8.142;2023-05-11T11:16:37;99768.41;;;23.10;54.06
66560;BME280;53413;49.878;8.142;2023-05-11T11:21:53;99769.16;;;23.02;54.26
66560;BME280;53413;49.878;8.142;2023-05-11T11:27:03;99764.31;;;23.16;54.71
66560;BME280;53413;49.878;8.142;2023-05-11T11:29:30;99764.09;;;22.99;54.44
66560;BME280;53413;49.878;8.142;2023-05-11T11:34:44;99761.50;;;22.30;55.47
66560;BME280;53413;49.878;8.142;2023-05-11T11:37:10;99750.25;;;22.07;55.95
66560;BME280;53413;49.878;8.142;2023-05-11T11:42:13;99758.41;;;21.55;57.39
66560;BME280;53413;49.878;8.142;2023-05-11T11:44:40;99761.84;;;21.26;58.40
66560;BME280;53413;49.878;8.142;2023-05-11T11:47:09;99760.03;;;21.05;59.73
66560;BME280;53413;49.878;8.142;2023-05-11T11:49:36;99760.84;;;20.96;60.10
66560;BME280;53413;49.878;8.142;2023-05-11T11:52:02;99760.19;;;21.04;60.65
66560;BME280;53413;49.878;8.142;2023-05-11T11:54:43;99753.25;;;20.91;60.72
66560;BME280;53413;49.878;8.142;2023-05-11T12:00:06;99756.28;;;20.66;68.17
66560;BME280;53413;49.878;8.142;2023-05-11T12:02:39;99756.69;;;20.61;69.01
66560;BME280;53413;49.878;8.142;2023-05-11T12:07:48;99752.06;;;20.42;72.44
66560;BME280;53413;49.878;8.142;2023-05-11T12:10:16;99755.44;;;20.44;75.54
66560;BME280;53413;49.878;8.142;2023-05-11T12:12:46;99755.97;;;20.38;74.36
66560;BME280;53413;49.878;8.142;2023-05-11T12:15:26;99755.25;;;20.36;74.80
66560;BME280;53413;49.878;8.142;2023-05-11T12:17:52;99751.72;;;20.35;77.93
66560;BME280;53413;49.878;8.142;2023-05-11T12:20:19;99752.19;;;20.40;80.13
66560;BME280;53413;49.878;8.142;2023-05-11T12:22:45;99750.66;;;20.38;78.15
66560;BME280;53413;49.878;8.142;2023-05-11T12:25:13;99743.09;;;20.43;78.36
66560;BME280;53413;49.878;8.142;2023-05-11T12:27:47;99753.41;;;20.36;79.35
66560;BME280;53413;49.878;8.142;2023-05-11T12:30:27;99750.06;;;20.02;81.40
66560;BME280;53413;49.878;8.142;2023-05-11T12:32:52;99762.22;;;19.60;79.56
66560;BME280;53413;49.878;8.142;2023-05-11T12:35:26;99761.16;;;19.17;80.33
66560;BME280;53413;49.878;8.142;2023-05-11T12:37:52;99763.25;;;18.89;85.03
66560;BME280;53413;49.878;8.142;2023-05-11T12:40:18;99755.53;;;18.75;87.46
66560;BME280;53413;49.878;8.142;2023-05-11T12:42:50;99763.47;;;18.64;93.08
66560;BME280;53413;49.878;8.142;2023-05-11T12:45:17;99757.78;;;18.57;94.94
66560;BME280;53413;49.878;8.142;2023-05-11T12:47:45;99753.19;;;18.59;100.00
66560;BME280;53413;49.878;8.142;2023-05-11T12:50:10;99760.44;;;18.57;99.74
66560;BME280;53413;49.878;8.142;2023-05-11T12:52:36;99755.41;;;18.76;100.00
66560;BME280;53413;49.878;8.142;2023-05-11T12:55:01;99759.44;;;18.94;99.37
66560;BME280;53413;49.878;8.142;2023-05-11T12:57:28;99753.50;;;18.90;94.80
66560;BME280;53413;49.878;8.142;2023-05-11T13:00:08;99762.47;;;19.00;97.09
66560;BME280;53413;49.878;8.142;2023-05-11T13:02:53;99750.16;;;19.11;96.65
66560;BME280;53413;49.878;8.142;2023-05-11T13:05:23;99755.69;;;18.96;87.98
66560;BME280;53413;49.878;8.142;2023-05-11T13:10:24;99745.09;;;19.07;90.46
66560;BME280;53413;49.878;8.142;2023-05-11T13:12:51;99750.41;;;19.19;88.00
66560;BME280;53413;49.878;8.142;2023-05-11T13:15:17;99740.50;;;19.21;88.34
66560;BME280;53413;49.878;8.142;2023-05-11T13:17:43;99743.16;;;19.10;89.61
66560;BME280;53413;49.878;8.142;2023-05-11T13:20:23;99748.03;;;18.80;92.25
66560;BME280;53413;49.878;8.142;2023-05-11T13:22:51;99755.19;;;18.80;95.56
66560;BME280;53413;49.878;8.142;2023-05-11T13:25:26;99746.69;;;18.63;93.70
66560;BME280;53413;49.878;8.142;2023-05-11T13:27:51;99750.31;;;18.73;99.32
66560;BME280;53413;49.878;8.142;2023-05-11T13:30:17;99745.97;;;18.72;94.97
66560;BME280;53413;49.878;8.142;2023-05-11T13:32:42;99742.38;;;18.85;94.77
66560;BME280;53413;49.878;8.142;2023-05-11T13:35:08;99739.91;;;18.95;91.81
66560;BME280;53413;49.878;8.142;2023-05-11T13:37:33;99729.78;;;19.00;89.54
66560;BME280;53413;49.878;8.142;2023-05-11T13:39:59;99733.84;;;19.15;90.34
66560;BME280;53413;49.878;8.142;2023-05-11T13:42:25;99737.25;;;19.29;85.74
66560;BME280;53413;49.878;8.142;2023-05-11T13:44:50;99723.47;;;19.35;87.51
66560;BME280;53413;49.878;8.142;2023-05-11T13:47:15;99727.44;;;19.52;87.44
66560;BME280;53413;49.878;8.142;2023-05-11T13:49:41;99733.97;;;19.48;84.16
66560;BME280;53413;49.878;8.142;2023-05-11T13:52:07;99734.81;;;19.48;80.72
66560;BME280;53413;49.878;8.142;2023-05-11T13:54:32;99730.34;;;19.37;81.96
66560;BME280;53413;49.878;8.142;2023-05-11T13:56:59;99735.19;;;19.21;82.38